createdAt,value
2023-11-28T00:00:36.607Z,7.03
2023-11-28T00:03:04.475Z,6.65
2023-11-28T00:05:31.976Z,6.75
2023-11-28T00:08:00.564Z,6.78
2023-11-28T00:10:27.704Z,7.10
2023-11-28T00:12:54.462Z,6.60
2023-11-28T00:15:21.245Z,6.78
2023-11-28T00:17:48.067Z,6.45
2023-11-28T00:20:15.259Z,6.70
2023-11-28T00:22:42.051Z,7.15
2023-11-28T00:25:09.124Z,6.45
2023-11-28T00:27:35.893Z,6.50
2023-11-28T00:30:02.833Z,6.15
2023-11-28T00:32:29.649Z,6.10
2023-11-28T00:34:56.498Z,6.38
2023-11-28T00:37:23.243Z,5.88
2023-11-28T00:39:49.976Z,5.80
2023-11-28T00:42:16.822Z,5.82
2023-11-28T00:44:43.681Z,6.10
2023-11-28T00:47:11.507Z,6.10
2023-11-28T00:49:43.396Z,6.10
2023-11-28T00:52:12.439Z,5.72
2023-11-28T00:54:39.556Z,6.07
2023-11-28T00:57:07.203Z,6.43
2023-11-28T00:59:34.014Z,6.85
2023-11-28T01:02:02.026Z,6.00
2023-11-28T01:04:28.980Z,6.10
2023-11-28T01:06:55.921Z,5.82
2023-11-28T01:09:22.647Z,5.70
2023-11-28T01:11:49.488Z,5.82
2023-11-28T01:14:16.205Z,5.60
2023-11-28T01:16:46.760Z,6.47
2023-11-28T01:19:14.911Z,6.05
2023-11-28T01:21:41.633Z,6.35
2023-11-28T01:24:08.497Z,6.68
2023-11-28T01:26:35.188Z,6.55
2023-11-28T01:29:02.087Z,6.22
2023-11-28T01:35:04.725Z,5.93
2023-11-28T01:37:31.535Z,5.90
2023-11-28T01:39:58.293Z,5.87
2023-11-28T01:42:25.211Z,5.70
2023-11-28T01:44:52.111Z,5.53
2023-11-28T01:47:18.941Z,5.70
2023-11-28T01:49:45.934Z,5.13
2023-11-28T01:52:13.927Z,5.75
2023-11-28T01:54:44.271Z,6.32
2023-11-28T01:57:11.959Z,6.50
2023-11-28T01:59:42.075Z,6.20
2023-11-28T02:02:09.827Z,5.97
2023-11-28T02:04:36.801Z,5.90
2023-11-28T02:07:03.653Z,5.90
2023-11-28T02:09:31.015Z,5.97
2023-11-28T02:11:58.723Z,6.30
2023-11-28T02:14:25.652Z,6.07
2023-11-28T02:16:54.718Z,6.55
2023-11-28T02:19:21.569Z,6.57
2023-11-28T02:21:50.049Z,6.70
2023-11-28T02:24:18.965Z,6.43
2023-11-28T02:26:45.944Z,6.78
2023-11-28T02:29:12.715Z,6.78
2023-11-28T02:31:39.526Z,7.15
2023-11-28T02:34:06.274Z,7.53
2023-11-28T02:36:34.286Z,7.93
2023-11-28T02:39:01.052Z,7.73
2023-11-28T02:41:27.804Z,7.95
2023-11-28T02:43:54.755Z,8.27
2023-11-28T02:46:21.616Z,7.78
2023-11-28T02:48:49.145Z,7.70
2023-11-28T02:51:21.524Z,7.93
2023-11-28T02:53:48.788Z,8.65
2023-11-28T02:56:15.531Z,8.25
2023-11-28T02:58:42.609Z,8.50
2023-11-28T03:01:09.480Z,8.52
2023-11-28T03:03:36.807Z,8.10
2023-11-28T03:06:03.926Z,8.20
2023-11-28T03:08:30.660Z,8.27
2023-11-28T03:10:57.589Z,8.05
2023-11-28T03:13:24.368Z,8.63
2023-11-28T03:15:51.124Z,8.05
2023-11-28T03:18:17.896Z,8.63
2023-11-28T03:20:44.633Z,8.93
2023-11-28T03:23:12.080Z,8.93
2023-11-28T03:25:38.846Z,8.43
2023-11-28T03:28:05.608Z,9.23
2023-11-28T03:30:32.390Z,8.30
2023-11-28T03:32:59.227Z,8.77
2023-11-28T03:35:28.516Z,8.32
2023-11-28T03:37:55.528Z,7.93
2023-11-28T03:40:22.335Z,7.80
2023-11-28T03:42:49.097Z,8.00
2023-11-28T03:45:15.900Z,7.65
2023-11-28T03:47:42.644Z,8.02
2023-11-28T03:50:09.992Z,7.57
2023-11-28T03:52:36.832Z,7.73
2023-11-28T03:55:04.166Z,8.02
2023-11-28T03:57:30.930Z,7.90
2023-11-28T03:59:57.794Z,7.40
2023-11-28T04:02:25.062Z,7.13
2023-11-28T04:04:53.496Z,7.20
2023-11-28T04:07:20.230Z,7.22
2023-11-28T04:09:47.858Z,7.53
2023-11-28T04:12:14.572Z,7.60
2023-11-28T04:14:42.160Z,8.10
2023-11-28T04:17:09.094Z,8.27
2023-11-28T04:19:36.001Z,8.40
2023-11-28T04:22:02.872Z,8.00
2023-11-28T04:24:31.647Z,7.95
2023-11-28T04:26:58.901Z,8.25
2023-11-28T04:29:25.725Z,7.63
2023-11-28T04:31:52.994Z,8.60
2023-11-28T04:34:19.930Z,8.50
2023-11-28T04:36:50.201Z,8.65
2023-11-28T04:39:18.151Z,8.43
2023-11-28T04:41:48.597Z,8.55
2023-11-28T04:44:15.380Z,8.70
2023-11-28T04:46:42.227Z,8.57
2023-11-28T04:49:13.575Z,8.27
2023-11-28T04:51:40.549Z,8.68
2023-11-28T04:54:07.379Z,8.73
2023-11-28T04:56:34.402Z,8.23
2023-11-28T04:59:01.308Z,8.18
2023-11-28T05:01:28.212Z,7.97
2023-11-28T05:03:55.122Z,8.55
2023-11-28T05:06:22.217Z,8.40
2023-11-28T05:08:49.265Z,8.88
2023-11-28T05:11:16.328Z,8.10
2023-11-28T05:13:43.771Z,8.32
2023-11-28T05:16:10.568Z,8.50
2023-11-28T05:18:37.374Z,7.75
2023-11-28T05:21:04.410Z,7.57
2023-11-28T05:23:31.485Z,7.38
2023-11-28T05:25:58.428Z,7.57
2023-11-28T05:28:25.457Z,6.88
2023-11-28T05:30:52.310Z,7.28
2023-11-28T05:33:19.183Z,7.55
2023-11-28T05:35:45.927Z,6.73
2023-11-28T05:38:12.798Z,7.55
2023-11-28T05:40:40.550Z,6.30
2023-11-28T05:43:07.444Z,6.50
2023-11-28T05:45:34.344Z,5.90
2023-11-28T05:48:03.967Z,5.97
2023-11-28T05:50:31.408Z,5.88
2023-11-28T05:52:58.494Z,6.03
2023-11-28T05:55:26.733Z,5.70
2023-11-28T05:57:53.572Z,5.85
2023-11-28T06:00:20.408Z,5.50
2023-11-28T06:02:48.022Z,5.72
2023-11-28T06:05:15.018Z,5.50
2023-11-28T06:07:42.787Z,5.30
2023-11-28T06:10:15.237Z,5.30
2023-11-28T06:12:42.378Z,4.85
2023-11-28T06:15:10.102Z,48.17
2023-11-28T06:17:37.094Z,4.50
2023-11-28T06:20:06.175Z,4.43
2023-11-28T06:22:33.512Z,4.50
2023-11-28T06:25:00.627Z,4.13
2023-11-28T06:27:27.478Z,30.67
2023-11-28T06:29:54.252Z,8.05
2023-11-28T06:32:21.297Z,4.10
2023-11-28T06:34:48.507Z,4.00
2023-11-28T06:37:15.465Z,3.83
2023-11-28T06:39:42.942Z,3.85
2023-11-28T06:42:09.726Z,3.80
2023-11-28T06:44:36.490Z,3.95
2023-11-28T06:47:04.282Z,4.28
2023-11-28T06:49:33.361Z,3.63
2023-11-28T06:52:03.694Z,3.80
2023-11-28T06:54:31.111Z,3.47
2023-11-28T06:56:58.004Z,3.85
2023-11-28T06:59:24.767Z,3.50
2023-11-28T07:01:51.806Z,2.92
2023-11-28T07:04:18.700Z,3.72
2023-11-28T07:06:45.478Z,2.97
2023-11-28T07:09:12.267Z,3.30
2023-11-28T07:11:39.055Z,3.28
2023-11-28T07:14:07.023Z,3.30
2023-11-28T07:16:35.965Z,3.00
2023-11-28T07:19:02.924Z,3.10
2023-11-28T07:21:29.779Z,3.30
2023-11-28T07:23:56.529Z,2.93
2023-11-28T07:26:23.312Z,2.83
2023-11-28T07:28:50.081Z,3.40
2023-11-28T07:31:17.732Z,3.00
2023-11-28T07:33:44.623Z,3.08
2023-11-28T07:36:14.309Z,3.00
2023-11-28T07:38:44.442Z,3.03
2023-11-28T07:41:15.748Z,2.83
2023-11-28T07:43:43.429Z,3.05
2023-11-28T07:46:11.447Z,2.88
2023-11-28T07:48:38.275Z,2.97
2023-11-28T07:51:05.830Z,2.70
2023-11-28T07:53:33.508Z,2.83
2023-11-28T07:56:00.348Z,3.35
2023-11-28T07:58:27.161Z,2.67
2023-11-28T08:00:53.968Z,2.90
2023-11-28T08:03:20.801Z,2.67
2023-11-28T08:05:48.645Z,2.80
2023-11-28T08:08:16.698Z,2.83
2023-11-28T08:10:45.030Z,2.85
2023-11-28T08:13:12.725Z,3.45
2023-11-28T08:15:39.532Z,3.60
2023-11-28T08:18:06.560Z,3.17
2023-11-28T08:20:33.346Z,3.30
2023-11-28T08:23:00.320Z,3.20
2023-11-28T08:25:27.199Z,3.30
2023-11-28T08:27:54.040Z,2.92
2023-11-28T08:30:20.844Z,2.90
2023-11-28T08:32:47.763Z,2.80
2023-11-28T08:35:14.922Z,2.97
2023-11-28T08:37:42.178Z,3.17
2023-11-28T08:40:09.658Z,3.10
2023-11-28T08:42:36.495Z,2.88
2023-11-28T08:45:03.272Z,2.90
2023-11-28T08:47:30.111Z,2.90
2023-11-28T08:50:00.889Z,2.70
2023-11-28T08:52:28.756Z,2.60
2023-11-28T08:54:55.517Z,2.75
2023-11-28T08:57:22.444Z,2.33
2023-11-28T08:59:49.912Z,2.53
2023-11-28T09:02:16.944Z,2.65
2023-11-28T09:04:44.051Z,2.50
2023-11-28T09:07:11.233Z,2.47
2023-11-28T09:09:37.987Z,2.40
2023-11-28T09:12:05.052Z,2.20
2023-11-28T09:14:38.943Z,2.20
2023-11-28T09:17:11.238Z,2.20
2023-11-28T09:19:38.415Z,2.10
2023-11-28T09:22:06.897Z,2.22
2023-11-28T09:24:33.917Z,2.38
2023-11-28T09:27:00.766Z,2.10
2023-11-28T09:29:27.512Z,2.45
2023-11-28T09:31:56.342Z,2.60
2023-11-28T09:34:23.635Z,2.03
2023-11-28T09:36:50.426Z,2.30
2023-11-28T09:39:17.217Z,2.10
2023-11-28T09:44:16.421Z,1.90
2023-11-28T09:46:50.587Z,2.20
2023-11-28T09:49:22.589Z,2.50
2023-11-28T09:51:50.271Z,2.60
2023-11-28T09:54:18.223Z,2.42
2023-11-28T09:56:48.058Z,2.35
2023-11-28T09:59:16.328Z,2.28
2023-11-28T10:01:47.000Z,2.53
2023-11-28T10:04:14.080Z,1.92
2023-11-28T10:06:47.994Z,2.20
2023-11-28T10:09:16.840Z,2.30
2023-11-28T10:11:44.644Z,2.45
2023-11-28T10:14:11.832Z,2.45
2023-11-28T10:16:48.094Z,2.30
2023-11-28T10:19:15.312Z,2.00
2023-11-28T10:21:42.119Z,2.80
2023-11-28T10:24:12.433Z,2.20
2023-11-28T10:26:39.528Z,2.90
2023-11-28T10:29:07.857Z,2.50
2023-11-28T10:31:38.961Z,2.80
2023-11-28T10:34:11.951Z,2.63
2023-11-28T10:36:47.636Z,2.20
2023-11-28T10:39:16.903Z,1.90
2023-11-28T10:41:43.831Z,2.10
2023-11-28T10:44:10.759Z,2.28
2023-11-28T10:46:40.292Z,2.03
2023-11-28T10:49:07.360Z,2.40
2023-11-28T10:51:35.050Z,2.08
2023-11-28T10:54:08.571Z,1.70
2023-11-28T10:56:38.126Z,2.30
2023-11-28T10:59:10.072Z,2.00
2023-11-28T11:01:37.137Z,1.77
2023-11-28T11:04:05.250Z,1.63
2023-11-28T11:06:32.120Z,1.73
2023-11-28T11:08:59.842Z,1.60
2023-11-28T11:11:27.475Z,1.80
2023-11-28T11:14:02.868Z,1.52
2023-11-28T11:16:39.268Z,1.60
2023-11-28T11:19:07.609Z,1.70
2023-11-28T11:21:44.034Z,1.80
2023-11-28T11:24:20.654Z,1.73
2023-11-28T11:26:51.265Z,1.92
2023-11-28T11:29:27.035Z,1.90
2023-11-28T11:31:57.575Z,2.10
2023-11-28T11:34:43.485Z,1.77
2023-11-28T11:37:30.333Z,2.00
2023-11-28T11:40:00.610Z,1.90
2023-11-28T11:42:28.092Z,2.13
2023-11-28T11:44:58.807Z,1.85
2023-11-28T11:47:30.031Z,2.20
2023-11-28T11:49:58.812Z,2.50
2023-11-28T11:52:26.565Z,2.20
2023-11-28T11:55:03.391Z,2.20
2023-11-28T11:57:30.491Z,2.50
2023-11-28T11:59:58.030Z,2.30
2023-11-28T12:02:24.875Z,2.17
2023-11-28T12:04:51.746Z,2.30
2023-11-28T12:07:19.156Z,2.60
2023-11-28T12:09:45.946Z,3.40
2023-11-28T12:12:16.071Z,2.70
2023-11-28T12:14:42.873Z,3.00
2023-11-28T12:17:09.962Z,3.30
2023-11-28T12:19:36.990Z,3.53
2023-11-28T12:22:06.812Z,2.55
2023-11-28T12:24:33.987Z,3.17
2023-11-28T12:27:03.678Z,2.60
2023-11-28T12:29:32.250Z,2.60
2023-11-28T12:31:59.456Z,2.60
2023-11-28T12:34:27.377Z,2.58
2023-11-28T12:36:58.410Z,2.37
2023-11-28T12:39:27.066Z,2.45
2023-11-28T12:41:57.714Z,3.23
2023-11-28T12:44:26.821Z,2.72
2023-11-28T12:46:53.981Z,3.50
2023-11-28T12:49:22.522Z,3.03
2023-11-28T12:51:49.628Z,2.90
2023-11-28T12:54:19.031Z,2.78
2023-11-28T12:56:54.787Z,2.50
2023-11-28T12:59:24.832Z,2.60
2023-11-28T13:01:57.110Z,2.30
2023-11-28T13:04:25.080Z,2.38
2023-11-28T13:07:05.105Z,2.60
2023-11-28T13:09:38.859Z,2.70
2023-11-28T13:12:07.566Z,2.75
2023-11-28T13:14:38.133Z,2.70
2023-11-28T13:17:07.975Z,2.15
2023-11-28T13:19:35.814Z,2.50
2023-11-28T13:22:02.779Z,2.30
2023-11-28T13:24:29.580Z,2.70
2023-11-28T13:26:56.946Z,2.50
2023-11-28T13:29:24.860Z,2.40
2023-11-28T13:31:52.696Z,2.35
2023-11-28T13:34:20.285Z,2.60
2023-11-28T13:36:48.413Z,2.38
2023-11-28T13:39:15.228Z,2.60
2023-11-28T13:41:42.248Z,2.60
2023-11-28T13:44:09.153Z,2.20
2023-11-28T13:46:36.074Z,2.58
2023-11-28T13:49:04.073Z,3.50
2023-11-28T13:51:31.406Z,3.60
2023-11-28T13:53:58.513Z,3.13
2023-11-28T13:56:25.557Z,3.30
2023-11-28T13:58:52.508Z,3.70
2023-11-28T14:01:19.952Z,3.33
2023-11-28T14:03:47.191Z,3.35
2023-11-28T14:06:13.975Z,2.83
2023-11-28T14:08:40.754Z,3.20
2023-11-28T14:11:08.519Z,3.70
2023-11-28T14:13:36.918Z,3.55
2023-11-28T14:16:05.818Z,2.88
2023-11-28T14:18:32.923Z,2.75
2023-11-28T14:21:02.105Z,2.90
2023-11-28T14:23:30.237Z,3.35
2023-11-28T14:25:57.037Z,3.17
2023-11-28T14:28:23.835Z,3.50
2023-11-28T14:30:50.594Z,3.25
2023-11-28T14:33:17.372Z,3.10
2023-11-28T14:35:44.258Z,3.15
2023-11-28T14:38:13.653Z,4.20
2023-11-28T14:40:40.492Z,3.20
2023-11-28T14:43:08.116Z,3.30
2023-11-28T14:45:35.052Z,3.72
2023-11-28T14:48:03.624Z,3.63
2023-11-28T14:50:32.154Z,3.80
2023-11-28T14:52:59.633Z,3.40
2023-11-28T14:55:26.710Z,3.60
2023-11-28T14:57:54.223Z,3.42
2023-11-28T15:00:22.796Z,3.50
2023-11-28T15:02:50.121Z,3.80
2023-11-28T15:05:17.323Z,4.20
2023-11-28T15:07:44.388Z,3.87
2023-11-28T15:10:12.385Z,4.40
2023-11-28T15:12:39.375Z,4.43
2023-11-28T15:15:06.950Z,4.38
2023-11-28T15:17:34.543Z,4.70
2023-11-28T15:20:01.836Z,4.80
2023-11-28T15:22:30.365Z,5.18
2023-11-28T15:24:57.431Z,5.05
2023-11-28T15:27:24.669Z,5.60
2023-11-28T15:29:53.026Z,5.78
2023-11-28T15:32:24.044Z,6.00
2023-11-28T15:34:51.159Z,6.03
2023-11-28T15:37:17.989Z,5.47
2023-11-28T15:39:44.757Z,6.15
2023-11-28T15:42:11.917Z,5.80
2023-11-28T15:44:38.703Z,5.75
2023-11-28T15:47:05.622Z,6.28
2023-11-28T15:49:40.360Z,5.75
2023-11-28T15:52:15.527Z,6.10
2023-11-28T15:54:43.143Z,6.20
2023-11-28T15:57:12.610Z,6.80
2023-11-28T15:59:43.980Z,6.65
2023-11-28T16:02:12.291Z,8.55
2023-11-28T16:04:41.169Z,6.72
2023-11-28T16:07:09.450Z,7.15
2023-11-28T16:09:36.453Z,7.40
2023-11-28T16:12:03.706Z,7.40
2023-11-28T16:14:30.676Z,7.03
2023-11-28T16:16:57.580Z,7.18
2023-11-28T16:19:24.374Z,7.00
2023-11-28T16:21:51.645Z,7.23
2023-11-28T16:24:18.382Z,7.28
2023-11-28T16:26:46.690Z,7.13
2023-11-28T16:29:16.511Z,7.35
2023-11-28T16:31:43.767Z,6.82
2023-11-28T16:34:10.734Z,7.13
2023-11-28T16:36:39.822Z,7.57
2023-11-28T16:39:08.418Z,7.50
2023-11-28T16:41:35.402Z,7.40
2023-11-28T16:44:02.294Z,8.13
2023-11-28T16:46:29.224Z,7.68
2023-11-28T16:48:56.030Z,8.30
2023-11-28T16:51:25.064Z,7.90
2023-11-28T16:53:51.944Z,8.27
2023-11-28T16:56:18.760Z,8.43
2023-11-28T16:58:45.895Z,8.32
2023-11-28T17:01:16.352Z,8.82
2023-11-28T17:03:43.508Z,8.57
2023-11-28T17:06:14.636Z,7.80
2023-11-28T17:08:43.328Z,8.23
2023-11-28T17:11:14.169Z,8.15
2023-11-28T17:13:42.949Z,8.05
2023-11-28T17:16:10.534Z,7.82
2023-11-28T17:18:37.598Z,7.80
2023-11-28T17:21:04.829Z,7.90
2023-11-28T17:23:35.239Z,8.10
2023-11-28T17:26:02.769Z,7.80
2023-11-28T17:28:30.987Z,7.80
2023-11-28T17:30:58.267Z,7.38
2023-11-28T17:33:25.206Z,7.57
2023-11-28T17:35:52.192Z,7.27
2023-11-28T17:38:19.563Z,7.70
2023-11-28T17:40:46.594Z,7.38
2023-11-28T17:43:15.524Z,7.13
2023-11-28T17:45:42.477Z,7.85
2023-11-28T17:48:09.577Z,7.45
2023-11-28T17:50:36.524Z,7.68
2023-11-28T17:53:04.024Z,7.65
2023-11-28T17:55:30.841Z,7.53
2023-11-28T17:57:57.614Z,7.60
2023-11-28T18:00:25.283Z,7.47
2023-11-28T18:02:53.261Z,7.32
2023-11-28T18:05:21.658Z,7.90
2023-11-28T18:07:49.848Z,8.07
2023-11-28T18:10:16.924Z,8.73
2023-11-28T18:12:44.069Z,7.70
2023-11-28T18:15:23.031Z,7.77
2023-11-28T18:17:56.284Z,8.00
2023-11-28T18:20:23.230Z,7.68
2023-11-28T18:22:50.593Z,7.90
2023-11-28T18:25:17.424Z,8.52
2023-11-28T18:27:44.227Z,8.65
2023-11-28T18:30:12.301Z,8.18
2023-11-28T18:32:39.359Z,9.63
2023-11-28T18:35:07.043Z,9.67
2023-11-28T18:37:34.009Z,9.63
2023-11-28T18:40:00.961Z,10.17
2023-11-28T18:42:27.814Z,9.55
2023-11-28T18:44:54.660Z,11.43
2023-11-28T18:47:21.561Z,10.02
2023-11-28T18:49:48.899Z,10.55
2023-11-28T18:52:15.694Z,13.38
2023-11-28T18:54:42.586Z,14.05
2023-11-28T18:57:09.388Z,15.25
2023-11-28T18:59:36.361Z,13.37
2023-11-28T19:02:03.625Z,12.90
2023-11-28T19:04:30.986Z,12.60
2023-11-28T19:06:57.833Z,13.00
2023-11-28T19:09:24.959Z,12.85
2023-11-28T19:11:52.293Z,13.27
2023-11-28T19:14:19.199Z,14.38
2023-11-28T19:16:46.004Z,14.50
2023-11-28T19:19:12.730Z,13.07
2023-11-28T19:21:45.188Z,14.40
2023-11-28T19:24:13.648Z,12.48
2023-11-28T19:26:41.540Z,11.93
2023-11-28T19:29:08.456Z,12.13
2023-11-28T19:31:36.530Z,12.88
2023-11-28T19:34:04.288Z,12.57
2023-11-28T19:36:31.830Z,13.18
2023-11-28T19:39:00.873Z,11.77
2023-11-28T19:41:27.802Z,12.30
2023-11-28T19:43:54.691Z,12.73
2023-11-28T19:46:22.138Z,12.10
2023-11-28T19:48:48.939Z,13.07
2023-11-28T19:51:16.089Z,12.57
2023-11-28T19:53:44.783Z,12.70
2023-11-28T19:56:11.847Z,12.57
2023-11-28T19:58:40.510Z,14.53
2023-11-28T20:01:09.122Z,12.45
2023-11-28T20:03:39.624Z,12.93
2023-11-28T20:06:07.749Z,12.60
2023-11-28T20:08:35.134Z,13.10
2023-11-28T20:11:01.952Z,12.85
2023-11-28T20:13:28.798Z,12.52
2023-11-28T20:15:55.657Z,12.73
2023-11-28T20:18:22.586Z,12.63
2023-11-28T20:20:49.491Z,12.85
2023-11-28T20:23:16.403Z,12.18
2023-11-28T20:25:43.227Z,13.00
2023-11-28T20:28:10.935Z,12.43
2023-11-28T20:30:37.845Z,13.10
2023-11-28T20:33:04.812Z,13.13
2023-11-28T20:35:31.683Z,13.75
2023-11-28T20:37:58.498Z,13.32
2023-11-28T20:40:26.847Z,13.13
2023-11-28T20:42:54.101Z,13.05
2023-11-28T20:45:21.204Z,13.38
2023-11-28T20:47:48.603Z,13.52
2023-11-28T20:50:15.735Z,13.73
2023-11-28T20:52:42.601Z,14.05
2023-11-28T20:55:10.053Z,14.63
2023-11-28T20:57:37.306Z,15.00
2023-11-28T21:00:10.792Z,15.60
2023-11-28T21:02:38.588Z,15.45
2023-11-28T21:05:06.078Z,16.35
2023-11-28T21:07:32.916Z,15.90
2023-11-28T21:09:59.687Z,15.98
2023-11-28T21:12:26.601Z,15.57
2023-11-28T21:14:53.372Z,15.70
2023-11-28T21:17:20.404Z,15.10
2023-11-28T21:19:50.529Z,15.23
2023-11-28T21:22:17.376Z,15.30
2023-11-28T21:24:44.130Z,15.25
2023-11-28T21:27:10.945Z,14.85
2023-11-28T21:29:39.548Z,15.63
2023-11-28T21:32:06.707Z,14.40
2023-11-28T21:34:35.686Z,14.60
2023-11-28T21:37:02.835Z,15.30
2023-11-28T21:39:32.053Z,14.48
2023-11-28T21:41:59.071Z,14.73
2023-11-28T21:44:25.916Z,13.90
2023-11-28T21:46:52.984Z,14.13
2023-11-28T21:49:19.935Z,14.27
2023-11-28T21:51:46.990Z,14.40
2023-11-28T21:54:14.746Z,14.82
2023-11-28T21:56:41.696Z,14.20
2023-11-28T21:59:09.058Z,14.70
2023-11-28T22:01:36.169Z,15.02
2023-11-28T22:04:05.735Z,14.52
2023-11-28T22:06:32.807Z,14.95
2023-11-28T22:09:02.693Z,14.18
2023-11-28T22:11:32.838Z,14.10
2023-11-28T22:13:59.586Z,14.18
2023-11-28T22:16:26.347Z,14.23
2023-11-28T22:18:53.154Z,13.55
2023-11-28T22:21:24.051Z,13.43
2023-11-28T22:23:52.495Z,13.65
2023-11-28T22:26:19.310Z,13.35
2023-11-28T22:28:46.036Z,13.33
2023-11-28T22:31:12.828Z,12.93
2023-11-28T22:33:39.596Z,13.40
2023-11-28T22:36:06.407Z,14.23
2023-11-28T22:38:33.216Z,13.20
2023-11-28T22:41:00.030Z,13.40
2023-11-28T22:43:26.799Z,13.80
2023-11-28T22:45:54.106Z,13.20
2023-11-28T22:48:21.806Z,12.25
2023-11-28T22:50:48.723Z,12.65
2023-11-28T22:53:15.593Z,12.98
2023-11-28T22:55:42.444Z,12.87
2023-11-28T22:58:10.042Z,13.05
2023-11-28T23:00:37.796Z,13.20
2023-11-28T23:03:04.882Z,12.48
2023-11-28T23:05:31.736Z,12.23
2023-11-28T23:07:58.544Z,12.85
2023-11-28T23:10:25.473Z,13.48
2023-11-28T23:12:52.281Z,12.32
2023-11-28T23:15:19.598Z,12.93
2023-11-28T23:17:46.836Z,12.90
2023-11-28T23:20:13.781Z,12.65
2023-11-28T23:22:48.183Z,13.02
2023-11-28T23:25:22.554Z,12.90
2023-11-28T23:27:49.696Z,13.38
2023-11-28T23:30:16.594Z,13.77
2023-11-28T23:32:43.452Z,13.15
2023-11-28T23:35:10.346Z,12.73
2023-11-28T23:37:37.164Z,12.70
2023-11-28T23:40:06.245Z,12.60
2023-11-28T23:42:43.346Z,12.80
2023-11-28T23:45:13.883Z,12.48
2023-11-28T23:47:40.836Z,11.97
2023-11-28T23:50:08.381Z,12.30
2023-11-28T23:52:35.176Z,12.80
2023-11-28T23:55:02.017Z,12.68
2023-11-28T23:57:28.754Z,12.33
2023-11-28T23:59:55.680Z,12.82
